Airfield :
LOGIN :

Register | Disclaimer

   EN    FR    IT 

 










Legend :    VFR   Marginal VFR   IFR   Intensive IFR   Very Intensive IFR
Visi :
Ceiling :
>= 8 km
>= 3000ft
5 to 8 km
1000 to 3000 ft
1500m to 5 km
500 to 1000 ft
800 to 1500m
200 to 500 ft
< 800m
< 200 ft
Symbols :   Thunderstorms  Fog  Heavy snow  Heavy precipitations  Wind > 20 kt
SIGMETs :     Misc.  Thunderstorms  Icing  Turbulence  Mountain Waves  Volcanic Ashes






- Airport Elevation : 1516 ft
- IATA code : AGB


EDMA - Augsburg

CURRENT METAR :
  • 301520Z 13005KT CAVOK 26/17 Q1011

EXPIRED METARs :
  • 301450Z 08004KT CAVOK 27/17 Q1011
  • 301420Z 07007KT 020V100 CAVOK 28/17 Q1011
  • 301350Z VRB04KT CAVOK 28/17 Q1011
  • 301320Z 11007KT 080V140 CAVOK 28/17 Q1012
  • 301250Z 13007KT 9999 SCT049 28/17 Q1012

TAF TAF EDMA
Valid from the 30 at 15:00 until the 01 at 00:00 UTC


301400Z 3015/3024 11005KT CAVOK
BECMG 3018/3020 25005KT



MET'MAP, your aeronautical weather chart ! - Copyright ORBIFLY December 2007 - Disclaimer

ORBIFLY MET'MAP TEAM :

Programming & Development : Alexandra Zaïnal
Original concept : Baudouin d'Aumeries
Technical & hardware support : Manuel Goepfert
Assistance : Marc-Olivier Méhu




SOURCES & CREDITS :

   NOAA